Time;durP1;ratioP1;P1;durP2;ratioP2;P2;SDS_P1;SDS_P2;PMS_P1;PMS_P2;Temp;Humidity;BMP_temperature;BMP_pressure;BME280_temperature;BME280_humidity;BME280_pressure;Samples;Min_cycle;Max_cycle;Signal;HPM_P1;HPM_P2
2021/10/01 00:01:27;;;;;;;1.73;0.80;;;14.80;94.10;;;;;;5024945;28;20085;-62
2021/10/01 00:03:55;;;;;;;4.20;0.65;;;14.80;94.00;;;;;;5023803;28;20057;-64
2021/10/01 00:06:22;;;;;;;2.53;0.63;;;14.80;94.10;;;;;;5024967;28;20080;-64
2021/10/01 00:08:48;;;;;;;3.67;0.52;;;14.80;94.20;;;;;;5024969;28;20128;-63
2021/10/01 00:11:15;;;;;;;3.78;1.35;;;14.80;94.20;;;;;;5025166;28;20111;-63
2021/10/01 00:13:42;;;;;;;2.53;0.60;;;14.80;94.10;;;;;;5024769;28;20091;-62
2021/10/01 00:16:09;;;;;;;4.25;0.98;;;14.80;94.10;;;;;;5025012;28;20455;-64
2021/10/01 00:18:37;;;;;;;5.85;0.60;;;14.80;94.10;;;;;;5024571;28;20053;-64
2021/10/01 00:21:05;;;;;;;0.85;0.40;;;14.80;94.10;;;;;;5025200;28;20173;-64
2021/10/01 00:23:31;;;;;;;3.33;0.52;;;14.90;94.10;;;;;;5024316;28;20546;-62
2021/10/01 00:25:58;;;;;;;1.85;0.40;;;14.90;94.20;;;;;;5023413;28;20073;-64
2021/10/01 00:28:25;;;;;;;2.83;0.60;;;14.90;94.20;;;;;;5023625;28;20451;-64
2021/10/01 00:30:52;;;;;;;2.05;0.70;;;14.90;94.10;;;;;;5024650;28;20124;-64
2021/10/01 00:33:19;;;;;;;1.70;0.50;;;14.90;94.10;;;;;;5023289;28;20053;-64
2021/10/01 00:35:46;;;;;;;2.25;0.60;;;14.90;94.10;;;;;;5024644;28;20049;-64
2021/10/01 00:38:13;;;;;;;3.85;0.60;;;14.90;94.20;;;;;;5023545;28;20152;-64
2021/10/01 00:40:40;;;;;;;6.60;3.70;;;14.90;94.20;;;;;;5024531;28;20056;-64
2021/10/01 00:43:06;;;;;;;8.27;1.17;;;14.90;94.20;;;;;;5024696;28;20469;-64
2021/10/01 00:45:33;;;;;;;5.22;0.85;;;14.90;94.10;;;;;;5024736;28;20161;-64
2021/10/01 00:48:00;;;;;;;2.95;1.05;;;14.90;94.20;;;;;;5026532;28;20259;-63
2021/10/01 00:50:27;;;;;;;8.70;1.33;;;15.00;94.20;;;;;;5029494;28;20046;-64
2021/10/01 00:52:54;;;;;;;7.75;1.35;;;14.90;94.40;;;;;;5031949;28;20079;-64
2021/10/01 00:55:20;;;;;;;6.63;1.08;;;15.00;94.20;;;;;;5033966;28;20057;-63
2021/10/01 00:57:47;;;;;;;6.78;2.00;;;15.00;94.30;;;;;;5032681;28;20119;-63
2021/10/01 01:00:26;;;;;;;7.28;1.40;;;15.00;94.50;;;;;;5033397;28;21372;-63
2021/10/01 01:03:00;;;;;;;9.00;2.97;;;15.00;94.30;;;;;;5032583;28;20054;-63
2021/10/01 01:05:42;;;;;;;13.80;1.20;;;15.00;94.60;;;;;;5032061;28;20076;-64
2021/10/01 01:08:09;;;;;;;4.53;1.25;;;15.00;94.60;;;;;;5032458;28;20553;-64
2021/10/01 01:10:43;;;;;;;7.70;1.08;;;15.00;94.40;;;;;;5031609;28;20153;-63
2021/10/01 01:13:40;;;;;;;5.65;1.05;;;15.00;94.70;;;;;;5000820;28;20232;-64
2021/10/01 01:16:12;;;;;;;5.82;1.33;;;15.00;95.00;;;;;;5030094;28;20652;-64
2021/10/01 01:18:42;;;;;;;4.68;1.63;;;15.00;94.60;;;;;;5016150;28;20049;-63
2021/10/01 01:21:14;;;;;;;7.20;1.52;;;15.00;94.50;;;;;;5028521;28;20045;-65
2021/10/01 01:24:09;;;;;;;12.70;1.50;;;15.00;94.60;;;;;;5032507;28;20461;-62
2021/10/01 01:27:14;;;;;;;6.35;0.98;;;15.10;94.70;;;;;;5031657;28;20156;-65
2021/10/01 01:30:06;;;;;;;8.13;1.42;;;15.10;94.90;;;;;;5019077;28;20493;-63
2021/10/01 01:32:33;;;;;;;7.68;1.52;;;15.10;94.70;;;;;;5031745;28;20547;-63
2021/10/01 01:35:16;;;;;;;7.07;1.40;;;15.10;94.40;;;;;;5014188;28;20085;-63
2021/10/01 01:37:55;;;;;;;5.20;1.33;;;15.20;94.80;;;;;;5032038;28;20305;-63
2021/10/01 01:40:23;;;;;;;2.28;0.68;;;15.20;94.70;;;;;;4998368;28;20095;-63
2021/10/01 01:42:52;;;;;;;4.32;0.80;;;15.10;94.30;;;;;;5031695;28;20100;-63
2021/10/01 01:45:19;;;;;;;4.53;0.80;;;15.10;94.30;;;;;;5016075;28;20063;-63
2021/10/01 01:47:46;;;;;;;1.10;0.50;;;15.10;94.50;;;;;;5033329;28;20132;-64
2021/10/01 01:50:13;;;;;;;5.05;0.90;;;15.20;94.30;;;;;;5001734;28;20049;-63
2021/10/01 01:52:41;;;;;;;5.97;0.90;;;15.20;94.60;;;;;;5032237;28;20072;-63
2021/10/01 01:55:08;;;;;;;2.75;0.80;;;15.20;94.40;;;;;;5015738;28;20103;-63
2021/10/01 01:57:35;;;;;;;4.05;0.60;;;15.10;95.00;;;;;;5031668;28;20041;-63
2021/10/01 02:00:03;;;;;;;2.67;0.88;;;15.10;94.50;;;;;;5029310;28;20145;-63
2021/10/01 02:02:29;;;;;;;3.67;0.90;;;15.10;94.40;;;;;;5011773;28;20065;-64
2021/10/01 02:04:56;;;;;;;1.50;0.82;;;15.10;94.40;;;;;;5012499;28;20049;-63
2021/10/01 02:07:23;;;;;;;2.97;0.88;;;15.10;94.60;;;;;;5028388;28;20085;-65
2021/10/01 02:09:50;;;;;;;3.13;0.57;;;15.10;94.80;;;;;;5028672;28;20088;-63
2021/10/01 02:12:17;;;;;;;1.50;0.50;;;15.20;94.60;;;;;;5028219;28;20125;-64
2021/10/01 02:14:46;;;;;;;3.08;0.50;;;15.20;94.80;;;;;;5018878;28;20076;-64
2021/10/01 02:17:13;;;;;;;3.45;0.73;;;15.20;94.60;;;;;;5011888;28;20054;-64
2021/10/01 02:19:42;;;;;;;5.40;1.75;;;15.20;94.50;;;;;;5027770;28;20494;-64
2021/10/01 02:22:09;;;;;;;1.00;0.47;;;15.20;94.50;;;;;;5029312;28;20504;-64
2021/10/01 02:24:36;;;;;;;2.72;0.70;;;15.30;94.50;;;;;;5028173;28;20041;-63
2021/10/01 02:27:15;;;;;;;2.33;0.50;;;15.30;94.40;;;;;;5027862;28;20046;-62
2021/10/01 02:29:44;;;;;;;2.15;0.45;;;15.30;94.70;;;;;;5028744;28;20104;-64
2021/10/01 02:32:28;;;;;;;2.67;0.50;;;15.30;94.80;;;;;;5029007;28;20079;-63
2021/10/01 02:34:54;;;;;;;2.38;0.68;;;15.30;94.80;;;;;;5027447;28;20049;-64
2021/10/01 02:37:21;;;;;;;3.65;0.60;;;15.30;94.50;;;;;;5029296;28;20054;-64
2021/10/01 02:39:49;;;;;;;2.70;0.70;;;15.30;94.50;;;;;;5029431;28;20049;-64
2021/10/01 02:42:16;;;;;;;2.78;0.50;;;15.30;94.70;;;;;;5028217;28;20057;-64
2021/10/01 02:44:43;;;;;;;5.13;0.60;;;15.30;94.60;;;;;;5028730;28;20050;-64
2021/10/01 02:47:10;;;;;;;1.23;0.40;;;15.30;94.60;;;;;;5028716;28;20081;-64
2021/10/01 02:49:38;;;;;;;2.75;0.95;;;15.20;94.70;;;;;;5010920;28;20085;-65
2021/10/01 02:52:09;;;;;;;1.60;0.30;;;15.30;94.90;;;;;;5026127;28;20096;-65
2021/10/01 02:54:55;;;;;;;2.10;0.30;;;15.30;94.80;;;;;;5025452;28;20497;-63
2021/10/01 02:57:22;;;;;;;3.65;0.45;;;15.30;95.00;;;;;;5027366;28;20103;-66
2021/10/01 02:59:49;;;;;;;1.65;0.30;;;15.20;95.00;;;;;;5027839;28;20077;-65
2021/10/01 03:02:16;;;;;;;4.38;0.75;;;15.30;94.80;;;;;;5026953;28;20087;-67
2021/10/01 03:04:45;;;;;;;2.20;0.43;;;15.20;95.20;;;;;;5027286;28;20140;-67
2021/10/01 03:07:12;;;;;;;0.73;0.30;;;15.30;94.90;;;;;;5028151;28;20053;-66
2021/10/01 03:09:39;;;;;;;0.63;0.25;;;15.30;94.90;;;;;;5026589;28;20037;-67
2021/10/01 03:12:06;;;;;;;1.33;0.38;;;15.30;94.90;;;;;;5026352;28;20049;-65
2021/10/01 03:14:34;;;;;;;0.47;0.30;;;15.30;94.90;;;;;;5028149;28;20107;-65
2021/10/01 03:17:01;;;;;;;0.57;0.32;;;15.30;94.70;;;;;;5010809;28;20107;-65
2021/10/01 03:19:28;;;;;;;0.43;0.30;;;15.30;94.80;;;;;;5010318;28;20069;-66
2021/10/01 03:21:55;;;;;;;0.75;0.40;;;15.30;95.00;;;;;;5007492;28;20118;-66
2021/10/01 03:24:22;;;;;;;0.35;0.25;;;15.40;94.90;;;;;;5022814;28;20094;-66
2021/10/01 03:26:51;;;;;;;0.22;0.22;;;15.30;94.80;;;;;;5027315;28;20095;-65
2021/10/01 03:29:19;;;;;;;1.75;0.30;;;15.30;94.90;;;;;;5014448;28;20621;-65
2021/10/01 03:31:46;;;;;;;3.08;0.32;;;15.40;95.00;;;;;;5029523;28;20042;-64
2021/10/01 03:34:13;;;;;;;0.40;0.20;;;15.30;94.90;;;;;;5026086;28;20049;-64
2021/10/01 03:36:40;;;;;;;1.55;0.30;;;15.40;94.80;;;;;;5005882;28;20119;-65
2021/10/01 03:39:07;;;;;;;2.08;0.25;;;15.40;94.90;;;;;;5026689;28;20045;-66
2021/10/01 03:41:34;;;;;;;0.50;0.20;;;15.40;94.70;;;;;;5027752;28;20041;-65
2021/10/01 03:44:01;;;;;;;2.25;0.40;;;15.40;94.70;;;;;;5011953;28;20057;-65
2021/10/01 03:46:28;;;;;;;0.95;0.40;;;15.40;95.10;;;;;;4990420;28;20092;-66
2021/10/01 03:48:55;;;;;;;1.65;0.30;;;15.40;94.90;;;;;;5025409;28;20530;-64
2021/10/01 03:51:23;;;;;;;4.47;1.95;;;15.40;94.70;;;;;;5026916;28;20050;-64
2021/10/01 03:53:52;;;;;;;2.22;0.57;;;15.40;94.70;;;;;;5027285;28;20497;-64
2021/10/01 03:56:20;;;;;;;1.15;0.40;;;15.50;94.90;;;;;;5022994;28;20068;-64
2021/10/01 03:58:47;;;;;;;1.10;0.50;;;15.50;94.80;;;;;;5026616;28;20050;-66
2021/10/01 04:01:14;;;;;;;1.27;0.60;;;15.40;94.80;;;;;;5025171;28;20049;-66
2021/10/01 04:03:41;;;;;;;2.65;0.32;;;15.40;94.80;;;;;;5008433;28;20107;-65
2021/10/01 04:06:08;;;;;;;0.30;0.28;;;15.40;94.90;;;;;;5024888;28;20041;-64
2021/10/01 04:08:35;;;;;;;2.05;0.47;;;15.40;94.80;;;;;;5009533;28;20092;-63
2021/10/01 04:11:02;;;;;;;0.30;0.20;;;15.40;95.00;;;;;;5025733;28;20050;-65
2021/10/01 04:13:29;;;;;;;0.20;0.20;;;15.50;94.70;;;;;;5027136;28;20046;-67
2021/10/01 04:15:55;;;;;;;0.93;0.20;;;15.40;94.70;;;;;;5025532;28;20564;-66
2021/10/01 04:18:22;;;;;;;0.30;0.30;;;15.50;94.70;;;;;;5026717;28;20080;-65
2021/10/01 04:20:49;;;;;;;3.00;0.50;;;15.50;94.70;;;;;;5026953;28;20049;-65
2021/10/01 04:23:16;;;;;;;0.22;0.22;;;15.50;94.70;;;;;;5025462;28;20137;-66
2021/10/01 04:25:43;;;;;;;0.20;0.20;;;15.40;94.60;;;;;;5026978;28;20099;-65
2021/10/01 04:28:10;;;;;;;0.63;0.30;;;15.50;94.90;;;;;;5026693;28;20085;-64
2021/10/01 04:30:44;;;;;;;2.85;0.30;;;15.50;94.80;;;;;;5025443;28;20551;-64
2021/10/01 04:33:21;;;;;;;1.17;0.77;;;15.50;94.80;;;;;;5026770;28;20049;-65
2021/10/01 04:35:49;;;;;;;1.67;0.32;;;15.50;94.50;;;;;;5013316;28;20077;-67
2021/10/01 04:38:16;;;;;;;0.80;0.40;;;15.40;94.60;;;;;;5026672;28;20128;-65
2021/10/01 04:40:43;;;;;;;1.88;0.30;;;15.50;94.60;;;;;;5026245;28;20126;-66
2021/10/01 04:43:10;;;;;;;1.50;0.30;;;15.60;94.60;;;;;;5025448;28;20041;-66
2021/10/01 04:45:37;;;;;;;0.45;0.30;;;15.50;94.90;;;;;;5025217;28;20106;-66
2021/10/01 04:48:06;;;;;;;2.58;0.40;;;15.50;94.60;;;;;;5025215;28;20088;-66
2021/10/01 04:50:33;;;;;;;0.60;0.30;;;15.50;94.80;;;;;;5008665;28;20140;-66
2021/10/01 04:53:00;;;;;;;0.75;0.40;;;15.50;94.70;;;;;;5026205;28;20069;-65
2021/10/01 04:55:27;;;;;;;1.00;0.30;;;15.50;94.90;;;;;;5026843;28;20130;-66
2021/10/01 04:57:54;;;;;;;0.77;0.30;;;15.50;94.80;;;;;;5024857;28;20045;-66
2021/10/01 05:00:21;;;;;;;1.45;0.45;;;15.50;94.80;;;;;;5027096;28;20073;-65
2021/10/01 05:02:48;;;;;;;1.38;0.40;;;15.50;94.80;;;;;;5025587;28;20049;-65
2021/10/01 05:05:15;;;;;;;0.68;0.30;;;15.60;94.90;;;;;;5027095;28;20071;-64
2021/10/01 05:07:41;;;;;;;5.15;0.57;;;15.60;94.60;;;;;;5026297;28;20085;-65
2021/10/01 05:10:09;;;;;;;5.05;0.40;;;15.70;94.60;;;;;;5022469;28;20765;-66
2021/10/01 05:12:36;;;;;;;3.25;0.60;;;15.70;94.60;;;;;;5027074;28;20049;-64
2021/10/01 05:15:04;;;;;;;1.45;0.60;;;15.70;94.50;;;;;;5008211;28;20045;-65
2021/10/01 05:17:34;;;;;;;2.92;0.88;;;15.70;94.60;;;;;;5026135;28;20586;-66
2021/10/01 05:20:01;;;;;;;2.80;1.00;;;15.70;94.40;;;;;;5026459;28;20083;-66
2021/10/01 05:22:28;;;;;;;2.28;0.63;;;15.70;94.40;;;;;;5024861;28;20084;-65
2021/10/01 05:24:55;;;;;;;1.65;0.50;;;15.70;94.30;;;;;;5025352;28;20099;-65
2021/10/01 05:27:21;;;;;;;3.20;0.82;;;15.70;94.30;;;;;;5032398;28;20041;-65
2021/10/01 05:29:48;;;;;;;2.97;0.70;;;15.80;94.10;;;;;;5025765;28;20112;-64
2021/10/01 05:32:15;;;;;;;1.88;0.82;;;15.70;94.40;;;;;;5038411;28;20096;-65
2021/10/01 05:34:42;;;;;;;2.08;0.50;;;15.80;94.20;;;;;;5026348;28;20041;-65
2021/10/01 05:37:08;;;;;;;1.88;0.63;;;15.80;94.10;;;;;;5029892;28;20049;-66
2021/10/01 05:39:35;;;;;;;3.65;0.73;;;15.80;94.00;;;;;;5028429;28;20053;-65
2021/10/01 05:42:02;;;;;;;1.63;0.70;;;15.80;94.10;;;;;;5029685;28;20140;-65
2021/10/01 05:44:29;;;;;;;3.55;1.00;;;15.80;94.10;;;;;;5029664;28;20284;-65
2021/10/01 05:47:00;;;;;;;3.22;0.98;;;15.80;94.10;;;;;;5027668;28;20049;-64
2021/10/01 05:49:31;;;;;;;1.80;0.60;;;15.80;94.10;;;;;;5027983;28;20061;-65
2021/10/01 05:54:44;;;;;;;3.40;0.82;;;15.90;94.00;;;;;;5029586;28;20069;-65
2021/10/01 05:57:11;;;;;;;3.00;0.65;;;15.90;94.00;;;;;;5028257;28;20152;-65
2021/10/01 05:59:38;;;;;;;3.00;0.57;;;15.90;94.10;;;;;;5027940;28;20076;-65
2021/10/01 06:02:05;;;;;;;3.72;0.70;;;15.90;94.00;;;;;;5029914;28;20083;-65
2021/10/01 06:04:32;;;;;;;2.53;0.45;;;15.90;94.20;;;;;;5028110;28;20393;-65
2021/10/01 06:06:58;;;;;;;3.85;0.55;;;15.90;94.20;;;;;;5031977;28;20085;-68
2021/10/01 06:09:25;;;;;;;21.77;4.35;;;15.80;94.20;;;;;;5028867;28;20484;-66
2021/10/01 06:11:52;;;;;;;0.40;0.40;;;15.80;94.40;;;;;;5028463;28;20472;-64
2021/10/01 06:14:22;;;;;;;1.25;0.57;;;15.80;94.30;;;;;;5028532;28;20266;-65
2021/10/01 06:16:50;;;;;;;1.75;0.50;;;15.80;94.30;;;;;;4677995;28;10000325;-64
2021/10/01 06:19:18;;;;;;;3.95;0.70;;;15.90;94.20;;;;;;5029507;28;20037;-64
2021/10/01 06:21:44;;;;;;;6.32;1.02;;;15.90;94.10;;;;;;5032216;28;20041;-64
2021/10/01 06:24:11;;;;;;;3.03;0.75;;;15.90;94.10;;;;;;5030138;28;20099;-64
2021/10/01 06:26:38;;;;;;;3.03;0.80;;;16.00;94.00;;;;;;5029505;28;20084;-65
2021/10/01 06:29:05;;;;;;;3.97;0.70;;;16.00;93.90;;;;;;5028569;28;20065;-64
2021/10/01 06:31:32;;;;;;;3.10;0.60;;;16.00;93.90;;;;;;5028701;28;20053;-65
2021/10/01 06:33:59;;;;;;;6.63;1.33;;;16.00;93.90;;;;;;5023303;28;20087;-64
2021/10/01 06:36:25;;;;;;;4.32;0.90;;;16.00;93.80;;;;;;5028095;28;20049;-63
2021/10/01 06:38:52;;;;;;;6.80;1.48;;;16.10;93.50;;;;;;5027771;28;20053;-64
2021/10/01 06:41:19;;;;;;;14.98;4.00;;;16.10;93.60;;;;;;5029303;28;20145;-63
2021/10/01 06:44:32;;;;;;;8.07;1.17;;;16.10;93.70;;;;;;5029866;28;20077;-59
2021/10/01 06:47:06;;;;;;;8.88;1.88;;;16.10;93.60;;;;;;5027882;28;20041;-60
2021/10/01 06:49:39;;;;;;;5.30;1.42;;;16.10;93.60;;;;;;5026532;28;20196;-62
2021/10/01 08:20:04;;;;;;;4.93;0.95;;;12.70;95.10;;;;;;5028483;28;20053;-64
2021/10/01 08:22:30;;;;;;;4.60;1.15;;;12.80;95.10;;;;;;5033623;28;20103;-66
2021/10/01 08:24:57;;;;;;;7.35;1.52;;;12.80;95.20;;;;;;5024512;28;20038;-65
2021/10/01 08:27:24;;;;;;;5.30;1.25;;;12.90;95.10;;;;;;5025595;28;20136;-65
2021/10/01 08:29:51;;;;;;;1.75;1.10;;;12.90;95.30;;;;;;5025485;28;20069;-67
2021/10/01 08:32:18;;;;;;;6.57;1.73;;;13.00;95.20;;;;;;5029779;28;20448;-65
2021/10/01 08:34:45;;;;;;;4.88;1.25;;;13.10;95.40;;;;;;5026734;28;20049;-66
2021/10/01 08:37:14;;;;;;;6.40;1.45;;;13.20;95.40;;;;;;5037684;28;20500;-64
2021/10/01 08:39:41;;;;;;;5.90;1.33;;;13.30;95.40;;;;;;4678345;28;10000322;-65
2021/10/01 08:42:07;;;;;;;7.30;1.70;;;13.40;95.40;;;;;;5026556;28;20065;-64
2021/10/01 08:44:34;;;;;;;12.30;1.30;;;13.40;95.30;;;;;;5026652;28;20077;-64
2021/10/01 08:47:02;;;;;;;8.65;1.63;;;13.50;95.30;;;;;;5026414;28;20085;-65
2021/10/01 08:49:30;;;;;;;6.28;2.00;;;13.50;95.10;;;;;;5025393;28;20068;-64
2021/10/01 08:51:57;;;;;;;8.20;1.83;;;13.60;95.20;;;;;;5026387;28;20127;-64
2021/10/01 08:54:24;;;;;;;10.20;1.50;;;13.60;94.90;;;;;;5025368;28;20088;-64
2021/10/01 08:56:51;;;;;;;9.30;1.50;;;13.60;94.80;;;;;;5026579;28;20087;-64
2021/10/01 08:59:18;;;;;;;10.27;1.83;;;13.60;94.80;;;;;;5026904;28;20041;-64
2021/10/01 09:01:45;;;;;;;12.57;2.85;;;13.60;94.80;;;;;;5026271;28;20050;-65
2021/10/01 09:04:12;;;;;;;9.50;1.70;;;13.60;94.90;;;;;;5025109;28;20054;-64
2021/10/01 09:06:41;;;;;;;21.40;3.25;;;13.60;95.00;;;;;;5026946;28;20508;-64
2021/10/01 09:09:09;;;;;;;9.43;1.55;;;13.60;95.20;;;;;;5028229;28;20069;-64
2021/10/01 09:11:38;;;;;;;13.13;1.70;;;13.60;95.10;;;;;;5030192;28;20092;-64
2021/10/01 09:14:09;;;;;;;10.75;3.05;;;13.70;95.20;;;;;;5032143;28;20072;-63
2021/10/01 09:16:36;;;;;;;15.18;2.72;;;13.70;95.20;;;;;;5030341;28;20132;-63
2021/10/01 09:19:04;;;;;;;9.27;2.42;;;13.70;95.10;;;;;;5033239;28;20033;-63
2021/10/01 09:21:43;;;;;;;10.68;2.38;;;13.70;95.20;;;;;;5033181;28;20057;-63
2021/10/01 09:24:12;;;;;;;10.88;1.90;;;13.70;95.00;;;;;;5020501;28;20084;-65
2021/10/01 09:26:49;;;;;;;11.10;1.90;;;13.70;95.10;;;;;;5030042;28;20041;-65
2021/10/01 09:29:31;;;;;;;20.08;2.42;;;13.80;95.30;;;;;;5019940;28;20073;-65
2021/10/01 09:31:59;;;;;;;17.60;2.53;;;13.80;95.30;;;;;;5035346;28;20073;-65
2021/10/01 09:34:26;;;;;;;13.80;2.35;;;13.90;95.50;;;;;;5036147;28;20444;-64
2021/10/01 09:37:17;;;;;;;10.05;2.67;;;13.90;95.20;;;;;;5029546;28;20069;-64
2021/10/01 09:39:46;;;;;;;12.23;4.72;;;14.00;95.40;;;;;;5025069;28;20069;-64
2021/10/01 09:42:15;;;;;;;17.65;2.95;;;14.10;95.30;;;;;;5030190;28;20056;-66
2021/10/01 09:44:49;;;;;;;19.70;4.18;;;14.10;95.30;;;;;;5030303;28;20092;-65
2021/10/01 09:47:17;;;;;;;13.38;2.92;;;14.10;95.20;;;;;;5030595;28;20079;-65
2021/10/01 09:49:43;;;;;;;13.98;3.38;;;14.20;95.20;;;;;;5030586;28;20053;-64
2021/10/01 09:52:11;;;;;;;19.23;4.80;;;14.20;95.30;;;;;;5029969;28;20469;-64
2021/10/01 09:54:38;;;;;;;22.00;3.92;;;14.20;95.40;;;;;;5025495;28;20137;-64
2021/10/01 09:57:06;;;;;;;23.42;5.10;;;14.20;95.30;;;;;;5030309;28;20120;-64
2021/10/01 09:59:35;;;;;;;18.90;3.45;;;14.30;95.10;;;;;;5030296;28;20049;-64
2021/10/01 10:02:07;;;;;;;18.42;3.53;;;14.30;95.20;;;;;;5029895;28;20087;-64
2021/10/01 10:04:35;;;;;;;21.65;3.83;;;14.40;94.90;;;;;;5030098;28;20065;-63
2021/10/01 10:07:09;;;;;;;11.93;2.90;;;14.40;95.00;;;;;;5029816;28;20500;-64
2021/10/01 10:09:42;;;;;;;22.27;3.00;;;14.60;95.00;;;;;;5029439;28;20488;-63
2021/10/01 10:12:11;;;;;;;13.75;2.97;;;14.60;95.00;;;;;;5029521;28;20555;-63
2021/10/01 10:14:42;;;;;;;14.90;2.83;;;14.60;95.10;;;;;;5029862;28;20107;-63
2021/10/01 10:17:20;;;;;;;18.48;3.05;;;14.70;94.90;;;;;;5029936;28;20041;-63
2021/10/01 10:19:47;;;;;;;18.35;3.47;;;14.70;94.80;;;;;;5029177;28;20099;-63
2021/10/01 10:22:14;;;;;;;26.27;3.30;;;14.70;94.70;;;;;;5028141;28;20551;-63
2021/10/01 10:24:41;;;;;;;22.75;4.45;;;14.80;95.10;;;;;;5028041;28;20088;-64
2021/10/01 10:27:08;;;;;;;22.08;3.28;;;14.80;94.80;;;;;;5029663;28;20053;-64
2021/10/01 10:29:38;;;;;;;16.27;3.67;;;14.80;94.70;;;;;;5029382;28;20049;-63
2021/10/01 10:32:10;;;;;;;23.25;3.58;;;14.80;94.80;;;;;;5028151;28;20126;-64
2021/10/01 10:34:52;;;;;;;23.23;3.90;;;14.80;94.60;;;;;;5026349;28;20073;-63
2021/10/01 10:37:20;;;;;;;13.88;3.15;;;14.90;94.80;;;;;;5027966;28;20528;-64
2021/10/01 10:39:53;;;;;;;16.27;4.72;;;14.90;94.60;;;;;;5029086;28;20049;-64
2021/10/01 10:42:29;;;;;;;12.75;2.97;;;15.00;94.50;;;;;;5029233;28;20049;-63
2021/10/01 10:45:09;;;;;;;10.93;2.60;;;15.10;94.30;;;;;;5024163;28;20081;-64
2021/10/01 10:47:44;;;;;;;11.13;2.55;;;15.20;94.40;;;;;;5011008;28;20046;-64
2021/10/01 10:50:26;;;;;;;12.80;2.45;;;15.20;94.30;;;;;;5025185;28;20503;-64
2021/10/01 10:53:05;;;;;;;9.98;2.55;;;15.20;93.60;;;;;;5028774;28;20677;-66
2021/10/01 10:55:52;;;;;;;16.65;3.28;;;15.30;94.30;;;;;;5029204;28;20568;-64
2021/10/01 10:58:22;;;;;;;14.18;3.10;;;15.50;93.00;;;;;;5028748;28;20053;-64
2021/10/01 11:00:52;;;;;;;14.80;3.40;;;15.50;94.00;;;;;;5028842;28;20088;-67
2021/10/01 11:03:20;;;;;;;11.10;2.70;;;15.70;93.70;;;;;;5028855;28;20033;-63
2021/10/01 11:06:08;;;;;;;10.57;2.47;;;15.70;93.80;;;;;;5028680;28;20115;-63
2021/10/01 11:08:45;;;;;;;15.32;2.08;;;15.80;92.50;;;;;;5027958;28;20073;-65
2021/10/01 11:11:33;;;;;;;19.67;3.40;;;15.90;92.70;;;;;;5027286;28;20088;-64
2021/10/01 11:14:15;;;;;;;10.55;2.35;;;15.90;91.40;;;;;;5028422;28;20041;-64
2021/10/01 11:16:43;;;;;;;10.85;2.30;;;15.90;90.90;;;;;;5028598;28;20140;-65
2021/10/01 11:19:10;;;;;;;14.85;3.28;;;15.90;92.20;;;;;;5028633;28;20165;-65
2021/10/01 11:21:44;;;;;;;9.35;3.00;;;15.90;91.50;;;;;;5028654;28;20080;-65
2021/10/01 11:24:18;;;;;;;;;;;15.90;90.90;;;;;;5028715;28;20085;-64
2021/10/01 11:26:51;;;;;;;10.55;2.95;;;15.90;87.50;;;;;;5022053;28;20360;-65
2021/10/01 11:29:35;;;;;;;11.98;2.45;;;15.90;90.90;;;;;;5028501;28;20068;-64
2021/10/01 11:32:08;;;;;;;11.93;1.92;;;15.90;87.60;;;;;;5021775;28;20128;-64
2021/10/01 11:34:39;;;;;;;10.30;1.55;;;15.90;90.30;;;;;;5026656;28;20057;-64
2021/10/01 11:37:28;;;;;;;10.13;2.70;;;15.90;90.60;;;;;;5021425;28;20582;-64
2021/10/01 11:40:17;;;;;;;6.47;2.47;;;16.00;86.20;;;;;;5018307;28;20041;-64
2021/10/01 11:42:46;;;;;;;6.85;2.05;;;16.10;87.40;;;;;;5021540;28;20049;-64
2021/10/01 11:45:18;;;;;;;13.35;2.17;;;16.10;90.80;;;;;;5026450;28;20132;-64
2021/10/01 11:47:53;;;;;;;10.65;2.08;;;16.20;91.00;;;;;;5027024;28;20084;-63
2021/10/01 11:50:43;;;;;;;10.35;2.20;;;16.20;90.10;;;;;;5026644;28;20045;-64
2021/10/01 11:53:18;;;;;;;7.50;1.80;;;16.30;89.00;;;;;;5026687;28;20072;-65
2021/10/01 11:55:50;;;;;;;9.63;2.95;;;16.30;87.40;;;;;;5027675;28;20069;-64
2021/10/01 11:58:18;;;;;;;7.53;2.50;;;16.30;89.80;;;;;;5027867;28;20049;-63
2021/10/01 12:00:47;;;;;;;8.85;2.35;;;16.30;89.50;;;;;;5027607;28;20053;-63
2021/10/01 12:03:15;;;;;;;5.80;1.90;;;16.30;88.30;;;;;;5027715;28;20507;-63
2021/10/01 12:06:00;;;;;;;21.40;3.40;;;16.30;89.20;;;;;;5027548;28;20459;-63
2021/10/01 12:08:29;;;;;;;8.23;1.58;;;16.40;85.70;;;;;;5027316;28;20053;-65
2021/10/01 12:10:56;;;;;;;9.23;1.73;;;16.40;89.70;;;;;;5014379;28;20053;-64
2021/10/01 12:13:35;;;;;;;10.85;2.10;;;16.50;89.80;;;;;;5027370;28;20057;-63
2021/10/01 12:16:05;;;;;;;9.02;1.98;;;16.60;87.80;;;;;;5026110;28;20041;-63
2021/10/01 12:18:45;;;;;;;10.15;1.73;;;16.70;88.70;;;;;;5027368;28;20084;-64
2021/10/01 12:21:16;;;;;;;11.38;1.80;;;16.80;87.10;;;;;;5027351;28;20129;-63
2021/10/01 12:23:45;;;;;;;10.38;2.83;;;16.80;87.00;;;;;;5027342;28;20107;-63
2021/10/01 12:26:18;;;;;;;12.77;1.70;;;16.80;85.40;;;;;;5027250;28;20101;-63
2021/10/01 12:28:59;;;;;;;7.05;1.55;;;16.80;85.30;;;;;;5026872;28;20144;-64
2021/10/01 12:31:29;;;;;;;4.07;1.33;;;16.80;81.80;;;;;;5027143;28;20053;-63
2021/10/01 12:34:00;;;;;;;8.43;1.67;;;16.80;85.30;;;;;;5025584;28;20438;-63
2021/10/01 12:36:27;;;;;;;9.23;1.60;;;16.80;83.20;;;;;;5027079;28;20052;-64
2021/10/01 12:38:56;;;;;;;10.02;1.85;;;16.90;84.00;;;;;;5025616;28;20132;-64
2021/10/01 12:41:22;;;;;;;4.85;1.50;;;17.00;84.00;;;;;;5026636;28;20107;-63
2021/10/01 12:43:54;;;;;;;2.30;1.27;;;17.00;81.50;;;;;;5026710;28;20042;-63
2021/10/01 12:46:40;;;;;;;3.88;0.93;;;17.10;80.50;;;;;;5026973;28;20535;-63
2021/10/01 12:49:11;;;;;;;5.45;0.98;;;17.10;75.50;;;;;;5023842;28;20541;-63
2021/10/01 12:51:38;;;;;;;9.55;1.45;;;17.10;78.80;;;;;;5026716;28;20088;-63
2021/10/01 12:54:40;;;;;;;7.10;1.25;;;17.20;79.40;;;;;;5026336;28;20065;-63
2021/10/01 12:57:16;;;;;;;5.85;1.20;;;17.20;76.30;;;;;;4984756;28;20133;-62
2021/10/01 12:59:49;;;;;;;3.15;0.77;;;17.20;77.50;;;;;;5020741;28;20661;-63
2021/10/01 13:02:26;;;;;;;2.35;0.95;;;17.10;75.10;;;;;;5026761;28;20493;-63
2021/10/01 13:05:01;;;;;;;4.55;1.20;;;17.00;77.30;;;;;;5026570;28;20050;-63
2021/10/01 13:07:39;;;;;;;4.88;1.15;;;16.90;76.30;;;;;;5026127;28;20095;-63
2021/10/01 13:10:15;;;;;;;5.55;1.55;;;16.80;78.40;;;;;;5025165;28;20049;-63
2021/10/01 13:12:50;;;;;;;6.55;0.65;;;16.70;79.30;;;;;;5026547;28;20441;-63
2021/10/01 13:15:39;;;;;;;2.17;0.70;;;16.60;76.90;;;;;;5027023;28;20053;-64
2021/10/01 13:18:10;;;;;;;7.07;1.30;;;16.60;78.90;;;;;;5027010;28;20075;-63
2021/10/01 13:21:03;;;;;;;7.13;0.85;;;16.60;80.10;;;;;;5026934;28;20056;-63
2021/10/01 13:23:41;;;;;;;6.80;1.17;;;16.60;78.80;;;;;;5014548;28;20045;-64
2021/10/01 13:26:21;;;;;;;2.78;0.85;;;16.70;78.20;;;;;;5025579;28;20089;-64
2021/10/01 13:28:50;;;;;;;6.38;1.10;;;16.70;78.50;;;;;;5026646;28;20048;-64
2021/10/01 13:31:17;;;;;;;3.50;1.15;;;16.70;77.50;;;;;;5026795;28;20049;-65
2021/10/01 13:33:44;;;;;;;6.22;1.45;;;16.80;78.80;;;;;;5025723;28;20080;-63
2021/10/01 13:36:11;;;;;;;3.53;1.95;;;16.80;80.10;;;;;;5027082;28;20612;-62
2021/10/01 13:38:40;;;;;;;9.40;1.58;;;16.90;79.90;;;;;;5026682;28;20125;-62
2021/10/01 13:41:08;;;;;;;7.47;1.67;;;16.90;77.70;;;;;;5026909;28;20045;-62
2021/10/01 13:43:36;;;;;;;3.28;0.95;;;17.00;76.60;;;;;;5026832;28;20119;-63
2021/10/01 13:46:03;;;;;;;7.40;1.13;;;17.00;78.80;;;;;;5025092;28;20405;-63
2021/10/01 13:48:30;;;;;;;3.72;1.50;;;17.10;76.10;;;;;;5027076;28;20092;-63
2021/10/01 13:50:57;;;;;;;2.05;1.00;;;17.20;78.00;;;;;;5026758;28;20072;-63
2021/10/01 13:53:24;;;;;;;4.40;1.13;;;17.20;76.50;;;;;;5026927;28;20161;-63
2021/10/01 13:55:51;;;;;;;4.50;1.25;;;17.20;77.40;;;;;;5027906;28;20080;-63
2021/10/01 13:58:18;;;;;;;4.28;1.17;;;17.20;76.30;;;;;;5030277;28;20042;-63
2021/10/01 14:00:45;;;;;;;11.32;2.20;;;17.20;76.50;;;;;;5030181;28;20073;-63
2021/10/01 14:03:12;;;;;;;1.80;0.73;;;17.20;77.00;;;;;;5030655;28;20077;-62
2021/10/01 14:05:40;;;;;;;1.92;0.95;;;17.40;76.40;;;;;;5030410;28;20424;-63
2021/10/01 14:08:07;;;;;;;6.20;1.13;;;17.40;73.80;;;;;;5028998;28;20120;-63
2021/10/01 14:10:34;;;;;;;5.18;1.10;;;17.50;74.60;;;;;;5028782;28;20061;-63
2021/10/01 14:13:01;;;;;;;5.90;1.77;;;17.70;75.70;;;;;;5029678;28;20050;-65
2021/10/01 14:15:31;;;;;;;2.35;0.70;;;17.80;75.60;;;;;;5030300;28;20049;-63
2021/10/01 14:17:58;;;;;;;5.50;1.17;;;17.70;74.00;;;;;;5030111;28;20137;-62
2021/10/01 14:20:27;;;;;;;5.13;1.10;;;17.60;74.70;;;;;;5029755;28;20053;-63
2021/10/01 14:22:54;;;;;;;1.83;0.98;;;17.50;75.50;;;;;;5030231;28;20080;-63
2021/10/01 14:25:22;;;;;;;5.28;1.00;;;17.40;74.40;;;;;;5030099;28;20111;-63
2021/10/01 14:27:49;;;;;;;6.38;1.13;;;17.30;74.30;;;;;;4679076;28;10000120;-65
2021/10/01 14:30:17;;;;;;;7.00;1.30;;;16.90;75.70;;;;;;5027964;28;20436;-63
2021/10/01 14:32:45;;;;;;;6.13;1.00;;;16.40;78.20;;;;;;5027112;28;20151;-69